createdAt,value
2019-01-04T00:00:54.771Z,2.10
2019-01-04T00:03:24.511Z,2.00
2019-01-04T00:05:54.799Z,2.00
2019-01-04T00:08:24.810Z,1.90
2019-01-04T00:10:55.179Z,1.90
2019-01-04T00:13:25.526Z,1.90
2019-01-04T00:15:55.253Z,2.00
2019-01-04T00:18:24.714Z,2.00
2019-01-04T00:20:54.724Z,2.00
2019-01-04T00:23:24.758Z,2.00
2019-01-04T00:25:54.753Z,2.00
2019-01-04T00:28:24.808Z,2.00
2019-01-04T00:30:54.855Z,2.00
2019-01-04T00:33:25.141Z,2.10
2019-01-04T00:35:55.240Z,2.10
2019-01-04T00:38:25.567Z,2.10
2019-01-04T00:40:54.975Z,2.10
2019-01-04T00:43:24.969Z,2.10
2019-01-04T00:45:54.955Z,2.10
2019-01-04T00:48:24.665Z,2.10
2019-01-04T00:50:54.984Z,2.20
2019-01-04T00:53:24.704Z,2.10
2019-01-04T00:56:05.468Z,2.10
2019-01-04T00:59:30.338Z,2.20
2019-01-04T01:02:37.756Z,2.10
2019-01-04T01:12:32.500Z,2.00
2019-01-04T01:19:16.012Z,2.00
2019-01-04T01:22:12.503Z,2.00
2019-01-04T01:28:35.448Z,1.80
2019-01-04T01:31:31.005Z,1.70
2019-01-04T01:34:53.531Z,1.70
2019-01-04T01:38:08.640Z,1.70
2019-01-04T01:41:15.009Z,1.60
2019-01-04T01:44:24.426Z,1.50
2019-01-04T01:47:15.079Z,1.40
2019-01-04T01:50:30.460Z,1.50
2019-01-04T01:53:00.808Z,1.40
2019-01-04T01:55:30.770Z,1.40
2019-01-04T01:58:01.048Z,1.40
2019-01-04T02:00:30.731Z,1.40
2019-01-04T02:03:00.703Z,1.40
2019-01-04T02:05:30.711Z,1.40
2019-01-04T02:08:00.403Z,1.30
2019-01-04T02:10:30.064Z,1.30
2019-01-04T02:13:00.113Z,1.30
2019-01-04T02:15:30.394Z,1.20
2019-01-04T02:18:00.378Z,1.20
2019-01-04T02:20:30.687Z,1.20
2019-01-04T02:23:00.675Z,1.10
2019-01-04T02:25:30.718Z,1.10
2019-01-04T02:28:00.977Z,1.10
2019-01-04T02:30:30.927Z,1.10
2019-01-04T02:33:00.926Z,1.00
2019-01-04T02:35:30.686Z,1.10
2019-01-04T02:38:00.336Z,1.10
2019-01-04T02:40:30.354Z,1.20
2019-01-04T02:43:00.460Z,1.10
2019-01-04T02:45:30.714Z,1.20
2019-01-04T02:48:00.676Z,1.20
2019-01-04T02:50:30.632Z,1.20
2019-01-04T02:53:00.600Z,1.20
2019-01-04T02:55:30.299Z,1.20
2019-01-04T02:58:00.300Z,1.20
2019-01-04T03:00:30.351Z,1.20
2019-01-04T03:03:00.415Z,1.30
2019-01-04T03:05:30.728Z,1.30
2019-01-04T03:08:00.791Z,1.20
2019-01-04T03:10:30.819Z,1.10
2019-01-04T03:13:00.566Z,1.10
2019-01-04T03:15:29.970Z,1.10
2019-01-04T03:18:00.230Z,1.10
2019-01-04T03:20:30.288Z,1.10
2019-01-04T03:23:00.552Z,1.10
2019-01-04T03:25:30.571Z,1.10
2019-01-04T03:28:00.648Z,1.00
2019-01-04T03:30:30.689Z,1.00
2019-01-04T03:33:00.998Z,1.00
2019-01-04T03:35:30.992Z,1.00
2019-01-04T03:38:01.012Z,0.90
2019-01-04T03:40:31.299Z,0.90
2019-01-04T03:43:01.299Z,0.90
2019-01-04T03:45:31.030Z,0.80
2019-01-04T03:48:01.383Z,0.70
2019-01-04T03:50:31.687Z,0.70
2019-01-04T03:53:02.011Z,0.80
2019-01-04T03:55:31.835Z,0.70
2019-01-04T03:58:02.141Z,0.70
2019-01-04T04:00:31.788Z,0.70
2019-01-04T04:03:01.853Z,0.70
2019-01-04T04:05:31.548Z,0.60
2019-01-04T04:08:01.063Z,0.70
2019-01-04T04:10:30.141Z,0.60
2019-01-04T04:12:59.778Z,0.60
2019-01-04T04:15:29.637Z,0.50
2019-01-04T04:17:59.609Z,0.60
2019-01-04T04:20:29.639Z,0.60
2019-01-04T04:22:59.347Z,0.50
2019-01-04T04:25:29.648Z,0.50
2019-01-04T04:27:59.826Z,0.50
2019-01-04T04:30:29.844Z,0.50
2019-01-04T04:32:59.863Z,0.40
2019-01-04T04:35:30.136Z,0.40
2019-01-04T04:37:59.299Z,0.30
2019-01-04T04:40:30.765Z,0.30
2019-01-04T04:43:00.584Z,0.20
2019-01-04T04:45:30.577Z,0.20
2019-01-04T04:48:00.575Z,0.20
2019-01-04T04:50:30.560Z,0.20
2019-01-04T04:53:00.293Z,0.20
2019-01-04T04:55:30.028Z,0.20
2019-01-04T04:58:00.004Z,0.20
2019-01-04T05:00:30.105Z,0.20
2019-01-04T05:02:59.912Z,0.20
2019-01-04T05:05:29.985Z,0.20
2019-01-04T05:07:59.747Z,0.20
2019-01-04T05:10:29.735Z,0.20
2019-01-04T05:12:59.435Z,0.20
2019-01-04T05:15:29.091Z,0.10
2019-01-04T05:17:59.421Z,0.20
2019-01-04T05:20:29.715Z,0.20
2019-01-04T05:22:59.757Z,0.20
2019-01-04T05:25:29.809Z,0.20
2019-01-04T05:27:59.990Z,0.20
2019-01-04T05:30:30.354Z,0.20
2019-01-04T05:33:00.121Z,0.20
2019-01-04T05:35:30.148Z,0.20
2019-01-04T05:38:00.428Z,0.30
2019-01-04T05:40:30.703Z,0.20
2019-01-04T05:43:00.743Z,0.30
2019-01-04T05:45:30.783Z,0.30
2019-01-04T05:48:00.738Z,0.30
2019-01-04T05:50:34.781Z,0.30
2019-01-04T05:53:01.630Z,0.40
2019-01-04T05:55:31.597Z,0.40
2019-01-04T05:58:01.567Z,0.40
2019-01-04T06:00:31.299Z,0.40
2019-01-04T06:03:00.693Z,0.50
2019-01-04T06:05:30.973Z,0.50
2019-01-04T06:08:00.979Z,0.50
2019-01-04T06:10:31.312Z,0.50
2019-01-04T06:13:01.031Z,0.60
2019-01-04T06:15:30.435Z,0.60
2019-01-04T06:18:00.446Z,0.60
2019-01-04T06:20:30.232Z,0.60
2019-01-04T06:23:00.364Z,0.60
2019-01-04T06:25:30.689Z,0.60
2019-01-04T06:28:00.819Z,0.70
2019-01-04T06:30:30.806Z,0.70
2019-01-04T06:33:01.130Z,0.70
2019-01-04T06:35:31.507Z,0.70
2019-01-04T06:38:01.565Z,0.80
2019-01-04T06:40:31.861Z,0.80
2019-01-04T06:43:01.840Z,0.80
2019-01-04T06:45:31.492Z,0.90
2019-01-04T06:48:01.145Z,0.90
2019-01-04T06:50:31.478Z,0.90
2019-01-04T06:53:01.169Z,1.00
2019-01-04T06:56:03.402Z,1.00
2019-01-04T06:58:33.688Z,1.00
2019-01-04T07:01:03.452Z,1.00
2019-01-04T07:03:33.789Z,1.00
2019-01-04T07:06:03.460Z,1.00
2019-01-04T07:08:33.209Z,1.00
2019-01-04T07:11:03.228Z,1.00
2019-01-04T07:13:33.289Z,1.00
2019-01-04T07:16:03.370Z,1.00
2019-01-04T07:18:33.118Z,1.00
2019-01-04T07:21:03.167Z,1.10
2019-01-04T07:23:33.204Z,1.00
2019-01-04T07:26:02.900Z,1.10
2019-01-04T07:28:32.860Z,1.10
2019-01-04T07:31:03.161Z,1.10
2019-01-04T07:33:33.161Z,1.10
2019-01-04T07:36:03.141Z,1.10
2019-01-04T07:38:32.882Z,1.10
2019-01-04T07:41:02.555Z,1.20
2019-01-04T07:43:32.552Z,1.20
2019-01-04T07:46:02.666Z,1.20
2019-01-04T07:48:32.671Z,1.20
2019-01-04T07:51:02.388Z,1.30
2019-01-04T07:53:32.245Z,1.30
2019-01-04T07:56:02.216Z,1.40
2019-01-04T07:58:31.963Z,1.40
2019-01-04T08:01:01.960Z,1.40
2019-01-04T08:03:32.257Z,1.40
2019-01-04T08:06:02.908Z,1.50
2019-01-04T08:08:32.892Z,1.50
2019-01-04T08:11:03.291Z,1.50
2019-01-04T08:13:33.291Z,1.50
2019-01-04T08:16:03.044Z,1.60
2019-01-04T08:18:32.456Z,1.60
2019-01-04T08:21:02.545Z,1.70
2019-01-04T08:23:32.280Z,1.80
2019-01-04T08:26:01.935Z,1.90
2019-01-04T08:28:31.767Z,2.00
2019-01-04T08:31:02.054Z,2.00
2019-01-04T08:33:32.145Z,2.00
2019-01-04T08:36:02.205Z,2.10
2019-01-04T08:38:32.516Z,2.10
2019-01-04T08:41:02.803Z,2.10
2019-01-04T08:43:32.781Z,2.10
2019-01-04T08:46:02.407Z,2.20
2019-01-04T08:48:31.871Z,2.30
2019-01-04T08:51:02.186Z,2.30
2019-01-04T08:56:59.576Z,2.90
2019-01-04T08:59:29.736Z,3.20
2019-01-04T09:01:59.444Z,3.20
2019-01-04T09:04:29.558Z,3.10
2019-01-04T09:06:59.574Z,2.90
2019-01-04T09:09:29.390Z,3.00
2019-01-04T09:11:59.762Z,3.00
2019-01-04T09:14:29.597Z,3.00
2019-01-04T09:17:00.177Z,3.10
2019-01-04T09:19:29.906Z,3.00
2019-01-04T09:22:00.859Z,3.00
2019-01-04T09:24:30.887Z,3.20
2019-01-04T09:27:00.897Z,3.10
2019-01-04T09:29:30.423Z,3.20
2019-01-04T09:32:00.526Z,3.40
2019-01-04T09:34:30.566Z,3.60
2019-01-04T09:37:00.342Z,3.60
2019-01-04T09:39:31.446Z,3.70
2019-01-04T09:42:09.834Z,3.70
2019-01-04T09:44:39.807Z,3.60
2019-01-04T09:47:09.610Z,3.50
2019-01-04T09:49:39.257Z,3.40
2019-01-04T09:52:09.316Z,3.40
2019-01-04T09:54:38.989Z,3.30
2019-01-04T09:57:08.739Z,3.10
2019-01-04T09:59:39.220Z,3.20
2019-01-04T10:02:11.954Z,3.20
2019-01-04T10:04:42.049Z,3.20
2019-01-04T10:07:12.470Z,3.30
2019-01-04T10:09:42.004Z,3.20
2019-01-04T10:12:11.852Z,3.20
2019-01-04T10:14:42.183Z,3.20
2019-01-04T10:17:11.660Z,3.20
2019-01-04T10:19:41.423Z,3.10
2019-01-04T10:22:11.276Z,3.20
2019-01-04T10:24:41.275Z,3.30
2019-01-04T10:27:10.990Z,3.10
2019-01-04T10:29:41.059Z,3.00
2019-01-04T10:32:10.863Z,3.00
2019-01-04T10:34:40.876Z,2.70
2019-01-04T10:37:10.884Z,2.80
2019-01-04T10:39:40.291Z,2.90
2019-01-04T10:42:10.050Z,2.80
2019-01-04T10:44:40.039Z,2.80
2019-01-04T10:47:10.358Z,2.60
2019-01-04T10:49:40.400Z,2.70
2019-01-04T10:52:10.407Z,2.90
2019-01-04T10:54:40.765Z,3.10
2019-01-04T10:57:10.615Z,3.30
2019-01-04T10:59:41.087Z,3.40
2019-01-04T11:02:11.175Z,3.40
2019-01-04T11:04:41.534Z,3.40
2019-01-04T11:07:11.372Z,3.60
2019-01-04T11:09:41.374Z,3.70
2019-01-04T11:12:10.865Z,3.60
2019-01-04T11:14:41.199Z,3.70
2019-01-04T11:17:10.976Z,3.60
2019-01-04T11:19:40.663Z,3.30
2019-01-04T11:22:45.386Z,3.30
2019-01-04T11:26:03.101Z,3.30
2019-01-04T11:29:01.043Z,3.60
2019-01-04T11:31:55.872Z,3.90
2019-01-04T11:35:03.996Z,4.30
2019-01-04T11:37:43.904Z,4.40
2019-01-04T11:40:47.904Z,4.80
2019-01-04T11:43:52.588Z,5.00
2019-01-04T11:46:52.124Z,5.40
2019-01-04T11:50:02.290Z,5.50
2019-01-04T11:52:43.164Z,5.70
2019-01-04T11:55:12.722Z,6.20
2019-01-04T11:57:42.940Z,6.60
2019-01-04T12:00:12.749Z,7.30
2019-01-04T12:02:42.767Z,6.50
2019-01-04T12:05:13.052Z,6.00
2019-01-04T12:07:43.066Z,5.80
2019-01-04T12:10:13.066Z,5.30
2019-01-04T12:12:42.818Z,4.90
2019-01-04T12:15:12.715Z,4.70
2019-01-04T12:17:42.703Z,4.70
2019-01-04T12:20:12.764Z,4.70
2019-01-04T12:22:43.111Z,4.50
2019-01-04T12:25:13.123Z,4.60
2019-01-04T12:27:43.181Z,4.70
2019-01-04T12:30:13.191Z,4.70
2019-01-04T12:32:42.955Z,4.60
2019-01-04T12:35:13.131Z,4.60
2019-01-04T12:37:42.865Z,4.60
2019-01-04T12:40:12.976Z,4.50
2019-01-04T12:42:43.073Z,4.40
2019-01-04T12:45:12.746Z,4.30
2019-01-04T12:47:42.209Z,4.20
2019-01-04T12:50:12.215Z,4.50
2019-01-04T12:52:42.250Z,4.40
2019-01-04T12:55:12.405Z,4.50
2019-01-04T12:57:42.427Z,4.60
2019-01-04T13:00:13.475Z,4.50
2019-01-04T13:02:42.620Z,4.30
2019-01-04T13:05:12.809Z,4.30
2019-01-04T13:07:42.541Z,4.50
2019-01-04T13:10:12.298Z,4.30
2019-01-04T13:12:42.350Z,4.30
2019-01-04T13:15:12.443Z,4.40
2019-01-04T13:17:42.439Z,4.20
2019-01-04T13:20:12.602Z,4.20
2019-01-04T13:22:42.724Z,4.30
2019-01-04T13:25:12.149Z,4.10
2019-01-04T13:27:41.955Z,4.20
2019-01-04T13:30:12.257Z,4.30
2019-01-04T13:32:42.023Z,4.10
2019-01-04T13:35:12.048Z,4.20
2019-01-04T13:37:42.127Z,4.30
2019-01-04T13:40:12.067Z,4.30
2019-01-04T13:42:42.209Z,4.30
2019-01-04T13:45:11.910Z,4.40
2019-01-04T13:47:41.918Z,4.40
2019-01-04T13:50:12.228Z,4.40
2019-01-04T13:52:41.731Z,4.50
2019-01-04T13:55:11.814Z,4.60
2019-01-04T13:57:42.141Z,4.60
2019-01-04T14:00:11.683Z,4.60
2019-01-04T14:02:41.735Z,4.40
2019-01-04T14:05:11.442Z,4.40
2019-01-04T14:07:41.151Z,4.30
2019-01-04T14:10:10.876Z,4.10
2019-01-04T14:12:41.092Z,4.00
2019-01-04T14:15:10.900Z,4.00
2019-01-04T14:17:41.368Z,3.90
2019-01-04T14:20:11.572Z,3.90
2019-01-04T14:22:41.997Z,3.70
2019-01-04T14:25:12.331Z,3.70
2019-01-04T14:27:42.465Z,3.90
2019-01-04T14:30:13.371Z,3.80
2019-01-04T14:32:43.394Z,3.70
2019-01-04T14:35:12.479Z,3.70
2019-01-04T14:37:42.167Z,3.60
2019-01-04T14:40:12.660Z,3.60
2019-01-04T14:42:42.707Z,3.60
2019-01-04T14:45:13.163Z,3.60
2019-01-04T14:47:42.929Z,3.50
2019-01-04T14:50:13.719Z,3.50
2019-01-04T14:52:44.016Z,3.40
2019-01-04T14:55:14.019Z,3.40
2019-01-04T14:57:43.791Z,3.40
2019-01-04T15:00:14.623Z,3.40
2019-01-04T15:02:44.412Z,3.30
2019-01-04T15:05:14.180Z,3.20
2019-01-04T15:07:44.559Z,3.40
2019-01-04T15:10:14.614Z,4.20
2019-01-04T15:12:44.058Z,4.10
2019-01-04T15:15:13.748Z,3.70
2019-01-04T15:17:43.495Z,3.70
2019-01-04T15:20:13.467Z,3.50
2019-01-04T15:22:43.871Z,3.40
2019-01-04T15:25:13.931Z,3.50
2019-01-04T15:27:43.963Z,3.50
2019-01-04T15:30:13.366Z,3.40
2019-01-04T15:32:43.130Z,3.30
2019-01-04T15:35:13.535Z,3.20
2019-01-04T15:37:43.550Z,3.10
2019-01-04T15:40:12.902Z,3.10
2019-01-04T15:42:42.955Z,3.00
2019-01-04T15:45:12.835Z,3.00
2019-01-04T15:47:43.217Z,3.00
2019-01-04T15:50:13.872Z,3.00
2019-01-04T15:52:44.203Z,3.00
2019-01-04T15:55:14.307Z,3.00
2019-01-04T15:57:44.510Z,2.90
2019-01-04T16:00:14.871Z,2.90
2019-01-04T16:02:44.665Z,3.00
2019-01-04T16:05:14.738Z,3.10
2019-01-04T16:07:44.758Z,3.10
2019-01-04T16:10:14.796Z,3.10
2019-01-04T16:12:44.808Z,3.10
2019-01-04T16:15:14.848Z,3.10
2019-01-04T16:17:44.268Z,3.10
2019-01-04T16:20:14.311Z,3.10
2019-01-04T16:22:44.359Z,3.00
2019-01-04T16:25:14.415Z,2.90
2019-01-04T16:27:44.108Z,2.90
2019-01-04T16:30:14.488Z,2.90
2019-01-04T16:32:44.200Z,2.90
2019-01-04T16:35:14.347Z,3.00
2019-01-04T16:37:44.732Z,3.10
2019-01-04T16:40:14.793Z,3.10
2019-01-04T16:42:44.899Z,3.10
2019-01-04T16:45:14.769Z,3.10
2019-01-04T16:47:44.532Z,3.10
2019-01-04T16:50:14.820Z,3.10
2019-01-04T16:52:44.934Z,3.10
2019-01-04T16:55:15.058Z,3.10
2019-01-04T16:57:45.395Z,3.10
2019-01-04T17:00:15.371Z,3.20
2019-01-04T17:02:46.227Z,3.20
2019-01-04T17:05:16.701Z,3.20
2019-01-04T17:07:47.022Z,3.20
2019-01-04T17:10:16.453Z,3.20
2019-01-04T17:12:46.326Z,3.20
2019-01-04T17:15:16.339Z,3.20
2019-01-04T17:17:46.024Z,3.20
2019-01-04T17:20:15.564Z,3.20
2019-01-04T17:22:45.605Z,3.30
2019-01-04T17:25:15.860Z,3.20
2019-01-04T17:27:45.877Z,3.20
2019-01-04T17:30:16.212Z,3.20
2019-01-04T17:32:46.234Z,3.10
2019-01-04T17:35:16.372Z,3.10
2019-01-04T17:37:46.174Z,3.10
2019-01-04T17:40:16.522Z,3.10
2019-01-04T17:42:46.309Z,3.10
2019-01-04T17:45:16.772Z,3.00
2019-01-04T17:47:47.158Z,3.00
2019-01-04T17:50:17.158Z,3.00
2019-01-04T17:52:47.586Z,3.00
2019-01-04T17:55:17.639Z,3.00
2019-01-04T17:57:47.460Z,3.00
2019-01-04T18:00:17.613Z,3.00
2019-01-04T18:02:47.114Z,3.00
2019-01-04T18:05:17.138Z,3.00
2019-01-04T18:07:46.847Z,3.00
2019-01-04T18:10:16.210Z,3.00
2019-01-04T18:12:45.734Z,3.00
2019-01-04T18:15:16.216Z,2.90
2019-01-04T18:17:45.995Z,2.90
2019-01-04T18:20:16.358Z,3.00
2019-01-04T18:22:46.690Z,2.90
2019-01-04T18:25:16.403Z,2.80
2019-01-04T18:27:46.743Z,2.90
2019-01-04T18:30:16.504Z,2.80
2019-01-04T18:32:46.269Z,2.80
2019-01-04T18:35:16.044Z,2.80
2019-01-04T18:37:46.163Z,2.80
2019-01-04T18:40:16.050Z,2.80
2019-01-04T18:42:45.799Z,2.70
2019-01-04T18:45:15.768Z,2.60
2019-01-04T18:47:45.205Z,2.50
2019-01-04T18:50:16.491Z,2.50
2019-01-04T18:52:46.600Z,2.50
2019-01-04T18:55:16.655Z,2.50
2019-01-04T18:57:47.133Z,2.30
2019-01-04T19:00:17.249Z,2.40
2019-01-04T19:02:47.668Z,2.30
2019-01-04T19:05:17.753Z,2.40
2019-01-04T19:07:47.896Z,2.40
2019-01-04T19:10:18.195Z,2.30
2019-01-04T19:12:48.587Z,2.30
2019-01-04T19:15:18.081Z,2.30
2019-01-04T19:17:47.880Z,2.30
2019-01-04T19:20:17.916Z,2.20
2019-01-04T19:22:47.674Z,2.20
2019-01-04T19:25:17.737Z,2.30
2019-01-04T19:27:48.117Z,2.30
2019-01-04T19:30:18.440Z,2.30
2019-01-04T19:32:48.257Z,2.30
2019-01-04T19:35:18.572Z,2.30
2019-01-04T19:37:48.792Z,2.30
2019-01-04T19:40:18.810Z,2.30
2019-01-04T19:42:49.334Z,2.30
2019-01-04T19:45:19.256Z,2.30
2019-01-04T19:47:49.199Z,2.30
2019-01-04T19:50:23.540Z,2.30
2019-01-04T19:52:53.802Z,2.40
2019-01-04T19:55:23.647Z,2.50
2019-01-04T19:57:54.088Z,2.50
2019-01-04T20:00:24.776Z,2.60
2019-01-04T20:02:54.537Z,2.50
2019-01-04T20:05:49.020Z,2.50
2019-01-04T20:09:08.275Z,2.50
2019-01-04T20:13:02.676Z,2.50
2019-01-04T20:16:01.369Z,2.50
2019-01-04T20:19:06.622Z,2.50
2019-01-04T20:22:01.619Z,2.40
2019-01-04T20:24:56.279Z,2.50
2019-01-04T20:27:53.981Z,2.40
2019-01-04T20:30:40.833Z,2.40
2019-01-04T20:33:35.890Z,2.40
2019-01-04T20:36:23.283Z,2.40
2019-01-04T20:39:22.516Z,2.40
2019-01-04T20:42:11.638Z,2.50
2019-01-04T20:45:08.367Z,2.50
2019-01-04T20:47:54.884Z,2.50
2019-01-04T20:50:34.118Z,2.50
2019-01-04T20:53:32.584Z,2.50
2019-01-04T20:56:27.703Z,2.60
2019-01-04T20:59:19.490Z,2.50
2019-01-04T21:02:05.815Z,2.60
2019-01-04T21:05:06.172Z,2.50
2019-01-04T21:07:53.859Z,2.50
2019-01-04T21:10:48.599Z,2.50
2019-01-04T21:13:49.529Z,2.50
2019-01-04T21:16:37.132Z,2.50
2019-01-04T21:19:23.949Z,2.50
2019-01-04T21:22:21.748Z,2.50
2019-01-04T21:25:19.636Z,2.50
2019-01-04T21:27:58.799Z,2.60
2019-01-04T21:30:47.822Z,2.50
2019-01-04T21:33:45.684Z,2.50
2019-01-04T21:36:33.372Z,2.50
2019-01-04T21:39:21.574Z,2.50
2019-01-04T21:42:19.210Z,2.50
2019-01-04T21:45:08.488Z,2.50
2019-01-04T21:47:57.864Z,2.50
2019-01-04T21:50:46.955Z,2.50
2019-01-04T21:53:34.744Z,2.60
2019-01-04T21:56:41.672Z,2.50
2019-01-04T21:59:42.220Z,2.50
2019-01-04T22:02:45.766Z,2.40
2019-01-04T22:05:43.715Z,2.50
2019-01-04T22:08:50.080Z,2.50
2019-01-04T22:11:37.560Z,2.50
2019-01-04T22:14:25.154Z,2.50
2019-01-04T22:17:12.626Z,2.50
2019-01-04T22:20:04.406Z,2.50
2019-01-04T22:23:00.634Z,2.50
2019-01-04T22:25:48.427Z,2.40
2019-01-04T22:28:43.420Z,2.40
2019-01-04T22:31:35.522Z,2.40
2019-01-04T22:34:22.562Z,2.40
2019-01-04T22:37:06.457Z,2.40
2019-01-04T22:40:03.325Z,2.40
2019-01-04T22:42:50.572Z,2.50
2019-01-04T22:45:42.437Z,2.50
2019-01-04T22:48:29.287Z,2.60
2019-01-04T22:51:16.391Z,2.40
2019-01-04T22:54:05.461Z,2.50
2019-01-04T22:56:53.019Z,2.50
2019-01-04T22:59:54.202Z,2.50
2019-01-04T23:02:49.136Z,2.50
2019-01-04T23:05:35.016Z,2.60
2019-01-04T23:08:26.201Z,2.60
2019-01-04T23:11:14.721Z,2.60
2019-01-04T23:14:06.649Z,2.60
2019-01-04T23:16:53.507Z,2.50
2019-01-04T23:19:40.681Z,2.50
2019-01-04T23:22:42.332Z,2.50
2019-01-04T23:25:31.128Z,2.50
2019-01-04T23:28:31.902Z,2.60
2019-01-04T23:31:38.563Z,2.60
2019-01-04T23:34:25.817Z,2.50
2019-01-04T23:37:12.925Z,2.50
2019-01-04T23:40:12.134Z,2.60
2019-01-04T23:43:00.879Z,2.60
2019-01-04T23:45:56.250Z,2.70
2019-01-04T23:48:48.415Z,2.70
2019-01-04T23:51:25.472Z,2.70
2019-01-04T23:54:13.014Z,2.70
2019-01-04T23:57:00.500Z,2.60
2019-01-04T23:59:55.039Z,2.70
